Time;durP1;ratioP1;P1;durP2;ratioP2;P2;SDS_P1;SDS_P2;PMS_P1;PMS_P2;Temp;Humidity;BMP_temperature;BMP_pressure;BME280_temperature;BME280_humidity;BME280_pressure;Samples;Min_cycle;Max_cycle;Signal;HPM_P1;HPM_P2
2023/06/25 00:00:21;;;;;;;9.50;6.90;;;;;;;15.10;83.08;101111.54;105575;1257;69202;-74
2023/06/25 00:03:11;;;;;;;9.70;7.60;;;;;;;15.10;82.68;101111.86;105539;1252;74953;-73
2023/06/25 00:05:40;;;;;;;10.70;7.20;;;;;;;15.15;83.00;101113.05;105578;1256;83319;-74
2023/06/25 00:08:11;;;;;;;10.10;6.40;;;;;;;15.18;83.03;101113.25;105565;1254;73577;-72
2023/06/25 00:10:41;;;;;;;12.50;6.70;;;;;;;15.19;82.90;101115.18;105552;1265;69166;-74
2023/06/25 00:13:09;;;;;;;8.60;6.80;;;;;;;15.21;83.47;101114.39;105609;1257;69196;-72
2023/06/25 00:15:38;;;;;;;9.70;6.80;;;;;;;15.19;83.49;101114.64;105493;1256;73899;-72
2023/06/25 00:18:08;;;;;;;12.10;7.00;;;;;;;15.16;83.64;101115.45;105573;1257;83329;-74
2023/06/25 00:20:39;;;;;;;8.50;6.90;;;;;;;15.12;83.62;101116.17;105552;1265;74088;-73
2023/06/25 00:23:10;;;;;;;11.50;7.10;;;;;;;15.07;83.83;101113.95;105511;1254;69216;-71
2023/06/25 00:25:41;;;;;;;8.00;6.90;;;;;;;15.02;83.77;101114.19;105562;1256;69195;-71
2023/06/25 00:28:10;;;;;;;13.00;6.80;;;;;;;14.95;83.86;101115.16;105491;1254;74924;-73
2023/06/25 00:30:39;;;;;;;10.60;7.30;;;;;;;14.91;83.97;101117.64;105517;1257;82471;-72
2023/06/25 00:33:08;;;;;;;8.60;6.10;;;;;;;14.82;83.88;101118.56;105494;1257;72767;-72
2023/06/25 00:35:55;;;;;;;10.40;6.40;;;;;;;14.72;83.87;101121.11;105537;1254;69539;-71
2023/06/25 00:38:24;;;;;;;10.50;6.60;;;;;;;14.61;83.81;101123.14;105568;1258;69182;-73
2023/06/25 00:40:52;;;;;;;9.40;6.80;;;;;;;14.52;83.96;101118.55;105573;1257;75176;-71
2023/06/25 00:43:21;;;;;;;9.20;6.80;;;;;;;14.47;84.21;101120.00;105555;1257;83341;-72
2023/06/25 00:45:50;;;;;;;10.80;6.40;;;;;;;14.39;84.15;101115.76;105576;1254;73770;-74
2023/06/25 00:48:22;;;;;;;9.00;6.50;;;;;;;14.33;84.44;101113.91;105495;1255;69189;-74
2023/06/25 00:50:51;;;;;;;11.50;6.90;;;;;;;14.26;84.48;101114.35;105536;1257;69377;-72
2023/06/25 00:53:22;;;;;;;10.30;6.40;;;;;;;14.20;84.76;101113.39;105573;1257;74786;-73
2023/06/25 00:55:51;;;;;;;10.90;7.00;;;;;;;14.13;85.00;101112.64;105502;1258;83577;-73
2023/06/25 00:58:23;;;;;;;9.60;6.50;;;;;;;14.07;85.10;101111.10;105505;1257;73964;-72
2023/06/25 01:00:55;;;;;;;10.50;7.00;;;;;;;14.00;85.17;101105.77;105528;1260;69195;-70
2023/06/25 01:03:30;;;;;;;10.20;7.00;;;;;;;13.94;85.46;101106.52;105464;1257;69095;-73
2023/06/25 01:06:29;;;;;;;10.10;6.90;;;;;;;13.90;85.58;101109.52;105576;1262;74893;-74
2023/06/25 01:08:59;;;;;;;7.20;6.20;;;;;;;13.85;86.02;101110.55;105560;1255;82427;-70
2023/06/25 01:11:29;;;;;;;8.40;6.40;;;;;;;13.81;86.05;101112.63;105489;1253;73983;-74
2023/06/25 01:13:58;;;;;;;10.60;6.70;;;;;;;13.77;86.13;101107.52;105547;1254;69256;-71
2023/06/25 01:16:30;;;;;;;12.60;7.10;;;;;;;13.74;86.46;101116.09;105478;1257;69551;-70
2023/06/25 01:19:02;;;;;;;11.10;6.80;;;;;;;13.72;86.65;101118.45;105566;1257;75131;-69
2023/06/25 01:21:33;;;;;;;8.90;7.10;;;;;;;13.70;86.85;101113.79;105537;1256;83111;-70
2023/06/25 01:24:02;;;;;;;12.60;7.10;;;;;;;13.68;86.96;101109.48;105386;1259;72790;-73
2023/06/25 01:26:31;;;;;;;10.00;6.90;;;;;;;13.64;86.86;101108.05;105553;1266;69179;-72
2023/06/25 01:29:02;;;;;;;9.30;6.80;;;;;;;13.59;86.98;101103.47;105538;1258;69202;-75
2023/06/25 01:31:34;;;;;;;9.10;6.80;;;;;;;13.54;87.05;101102.44;105524;1256;73363;-71
2023/06/25 01:34:03;;;;;;;10.40;7.00;;;;;;;13.50;87.23;101095.77;105552;1256;83345;-73
2023/06/25 01:36:39;;;;;;;11.70;7.40;;;;;;;13.46;87.50;101093.99;105586;1254;73924;-72
2023/06/25 01:39:08;;;;;;;9.70;7.20;;;;;;;13.42;87.51;101097.82;105483;1258;69195;-73
2023/06/25 01:41:39;;;;;;;13.80;7.10;;;;;;;13.39;87.82;101093.36;105523;1257;69196;-72
2023/06/25 01:44:10;;;;;;;9.10;7.00;;;;;;;13.38;87.87;101095.52;105574;1254;73825;-71
2023/06/25 01:46:39;;;;;;;8.70;7.20;;;;;;;13.35;87.96;101090.17;105509;1257;83390;-71
2023/06/25 01:49:10;;;;;;;10.50;7.00;;;;;;;13.33;88.35;101088.14;105480;1257;73737;-70
2023/06/25 01:52:02;;;;;;;8.20;7.10;;;;;;;13.29;88.01;101089.17;105448;1265;69238;-71
2023/06/25 01:54:31;;;;;;;8.70;6.60;;;;;;;13.25;88.35;101089.83;105510;1257;69174;-71
2023/06/25 01:57:00;;;;;;;10.10;7.00;;;;;;;13.24;88.37;101087.92;105499;1264;73318;-74
2023/06/25 01:59:29;;;;;;;8.60;6.40;;;;;;;13.22;88.56;101083.45;105479;1254;83776;-72
2023/06/25 02:02:06;;;;;;;12.40;7.50;;;;;;;13.20;88.61;101081.39;105543;1257;73704;-72
2023/06/25 02:04:35;;;;;;;10.10;7.40;;;;;;;13.20;89.07;101080.70;105611;1256;69180;-70
2023/06/25 02:07:07;;;;;;;9.30;6.80;;;;;;;13.21;89.15;101078.55;105451;1254;69186;-71
2023/06/25 02:09:37;;;;;;;9.60;6.70;;;;;;;13.22;89.32;101074.84;105588;1254;74025;-73
2023/06/25 02:12:12;;;;;;;17.60;6.90;;;;;;;13.20;89.28;101075.61;105609;1257;83461;-71
2023/06/25 02:14:43;;;;;;;8.60;6.70;;;;;;;13.21;89.73;101073.13;105461;1254;73749;-71
2023/06/25 02:17:13;;;;;;;8.10;6.80;;;;;;;13.24;89.86;101072.86;105573;1257;69237;-70
2023/06/25 02:19:45;;;;;;;9.60;6.40;;;;;;;13.25;89.92;101072.63;105559;1253;69087;-72
2023/06/25 02:22:18;;;;;;;10.70;6.20;;;;;;;13.25;89.79;101071.77;105568;1256;75064;-70
2023/06/25 02:24:52;;;;;;;11.00;7.10;;;;;;;13.22;89.82;101069.23;105583;1256;83456;-73
2023/06/25 02:27:24;;;;;;;9.10;6.60;;;;;;;13.20;89.72;101068.23;105548;1254;72689;-73
2023/06/25 02:29:55;;;;;;;8.40;7.00;;;;;;;13.21;90.04;101062.79;105574;1257;69177;-71
2023/06/25 02:32:33;;;;;;;12.90;7.00;;;;;;;13.26;90.44;101063.11;105452;1257;69181;-72
2023/06/25 02:35:05;;;;;;;10.80;7.00;;;;;;;13.28;90.38;101066.91;105608;1254;75330;-72
2023/06/25 02:37:36;;;;;;;9.90;6.10;;;;;;;13.27;90.15;101068.54;105563;1257;83546;-72
2023/06/25 02:40:11;;;;;;;10.70;6.70;;;;;;;13.25;90.14;101071.94;105567;1263;73979;-71
2023/06/25 02:42:42;;;;;;;13.30;7.40;;;;;;;13.23;90.04;101071.66;105547;1252;69208;-70
2023/06/25 02:45:14;;;;;;;11.50;6.80;;;;;;;13.21;90.24;101072.58;105565;1254;69090;-73
2023/06/25 02:47:52;;;;;;;9.40;6.40;;;;;;;13.19;90.22;101071.09;105588;1257;74883;-71
2023/06/25 02:50:21;;;;;;;10.10;6.20;;;;;;;13.15;90.17;101069.13;105568;1254;83340;-69
2023/06/25 02:52:50;;;;;;;9.20;7.30;;;;;;;13.12;90.25;101071.33;105572;1254;73716;-70
2023/06/25 02:55:20;;;;;;;9.30;6.90;;;;;;;13.11;90.33;101068.06;105622;1255;69186;-70
2023/06/25 02:57:49;;;;;;;8.30;6.70;;;;;;;13.12;90.45;101068.73;105556;1257;69295;-70
2023/06/25 03:00:18;;;;;;;8.10;6.30;;;;;;;13.12;90.79;101067.12;105555;1256;74795;-71
2023/06/25 03:02:49;;;;;;;7.90;6.20;;;;;;;13.09;90.30;101068.81;105507;1254;83455;-72
2023/06/25 03:05:21;;;;;;;8.90;6.90;;;;;;;13.04;90.36;101059.19;105448;1254;73953;-75
2023/06/25 03:07:52;;;;;;;8.40;6.90;;;;;;;13.01;90.60;101057.37;105524;1255;69209;-71
2023/06/25 03:10:25;;;;;;;10.10;7.10;;;;;;;12.99;90.59;101058.13;105497;1257;69246;-70
2023/06/25 03:12:55;;;;;;;12.10;7.60;;;;;;;12.98;91.01;101057.14;105521;1256;73527;-72
2023/06/25 03:15:27;;;;;;;11.20;7.30;;;;;;;12.97;90.99;101055.95;105651;1256;83625;-73
2023/06/25 03:17:59;;;;;;;7.70;6.90;;;;;;;12.97;91.21;101053.83;105465;1254;72739;-72
2023/06/25 03:20:28;;;;;;;9.70;7.00;;;;;;;12.98;91.31;101053.98;105592;1253;69192;-72
2023/06/25 03:23:00;;;;;;;11.10;7.70;;;;;;;12.98;91.41;101055.90;105600;1254;71127;-71
2023/06/25 03:25:29;;;;;;;8.90;7.00;;;;;;;12.99;91.61;101054.30;105610;1254;73813;-74
2023/06/25 03:28:24;;;;;;;14.60;7.90;;;;;;;12.99;91.86;101056.90;105569;1257;84142;-72
2023/06/25 03:30:54;;;;;;;8.60;7.60;;;;;;;13.01;92.01;101055.63;105602;1253;73562;-72
2023/06/25 03:33:29;;;;;;;8.20;6.50;;;;;;;13.03;92.27;101055.02;105523;1254;69186;-72
2023/06/25 03:36:01;;;;;;;9.10;6.30;;;;;;;13.05;92.57;101054.23;105662;1254;69218;-72
2023/06/25 03:38:31;;;;;;;12.20;7.00;;;;;;;13.09;92.52;101054.45;105581;1254;74566;-74
2023/06/25 03:41:03;;;;;;;10.10;7.30;;;;;;;13.11;92.79;101052.25;105467;1257;83515;-72
2023/06/25 03:43:32;;;;;;;8.90;6.50;;;;;;;13.15;93.01;101055.45;105594;1255;73658;-71
2023/06/25 03:46:04;;;;;;;8.50;7.20;;;;;;;13.20;93.07;101054.90;105453;1254;69142;-72
2023/06/25 03:48:34;;;;;;;9.00;7.10;;;;;;;13.24;93.27;101055.99;105602;1257;69541;-72
2023/06/25 03:51:03;;;;;;;11.80;6.60;;;;;;;13.28;93.40;101056.91;105627;1256;73549;-74
2023/06/25 03:53:33;;;;;;;8.10;6.80;;;;;;;13.32;93.38;101059.05;105486;1254;83728;-69
2023/06/25 03:56:01;;;;;;;7.90;6.80;;;;;;;13.35;93.46;101055.58;105586;1254;73045;-70
2023/06/25 03:58:30;;;;;;;9.50;7.40;;;;;;;13.40;93.61;101054.38;105567;1254;69266;-72
2023/06/25 04:01:02;;;;;;;8.60;7.30;;;;;;;13.43;93.54;101050.40;105451;1257;69365;-71
2023/06/25 04:03:34;;;;;;;12.30;6.60;;;;;;;13.46;93.78;101052.90;105470;1254;74678;-71
2023/06/25 04:06:03;;;;;;;9.40;6.70;;;;;;;13.52;94.08;101051.08;105568;1255;83122;-71
2023/06/25 04:08:32;;;;;;;10.40;7.20;;;;;;;13.59;94.37;101053.81;105641;1254;72750;-70
2023/06/25 04:11:03;;;;;;;8.30;7.30;;;;;;;13.68;94.51;101054.35;105583;1256;69181;-74
2023/06/25 04:13:32;;;;;;;8.70;6.30;;;;;;;13.77;94.75;101057.65;105651;1252;69202;-71
2023/06/25 04:16:00;;;;;;;10.40;7.10;;;;;;;13.85;95.11;101055.91;105398;1257;74982;-72
2023/06/25 04:18:35;;;;;;;9.00;7.60;;;;;;;13.98;95.64;101056.29;105612;1257;83121;-71
2023/06/25 04:21:06;;;;;;;10.10;7.50;;;;;;;14.14;96.31;101052.83;105591;1253;73616;-72
2023/06/25 04:23:37;;;;;;;9.20;7.20;;;;;;;14.26;96.40;101051.77;105581;1255;69205;-73
2023/06/25 04:26:07;;;;;;;11.90;7.80;;;;;;;14.37;96.40;101044.30;105578;1257;69172;-72
2023/06/25 04:28:35;;;;;;;10.90;8.20;;;;;;;14.48;96.60;101050.50;105596;1254;74832;-73
2023/06/25 04:31:04;;;;;;;10.50;7.90;;;;;;;14.60;96.62;101048.27;105621;1255;83464;-72
2023/06/25 04:33:40;;;;;;;11.30;7.90;;;;;;;14.70;96.59;101049.41;105473;1257;73677;-73
2023/06/25 04:36:11;;;;;;;9.30;7.90;;;;;;;14.80;96.29;101051.27;105588;1254;69210;-73
2023/06/25 04:38:40;;;;;;;9.50;8.20;;;;;;;14.89;96.16;101051.19;105608;1255;69196;-72
2023/06/25 04:41:09;;;;;;;11.20;7.70;;;;;;;15.01;96.30;101056.85;105591;1255;75140;-72
2023/06/25 04:43:40;;;;;;;9.90;7.80;;;;;;;15.11;96.13;101054.79;105563;1254;82360;-74
2023/06/25 04:46:11;;;;;;;10.60;7.60;;;;;;;15.20;96.09;101056.48;105589;1256;73465;-76
2023/06/25 04:48:44;;;;;;;10.40;7.90;;;;;;;15.30;96.09;101056.75;105543;1257;69125;-79
2023/06/25 04:51:13;;;;;;;10.80;8.00;;;;;;;15.38;96.06;101057.07;105625;1258;69128;-79
2023/06/25 04:53:42;;;;;;;9.10;7.50;;;;;;;15.44;95.88;101054.86;105824;1256;73969;-77
2023/06/25 04:56:10;;;;;;;14.60;7.70;;;;;;;15.48;95.81;101055.37;105898;1256;83226;-83
2023/06/25 04:58:39;;;;;;;10.60;7.90;;;;;;;15.52;95.57;101053.27;105716;1251;73681;-81
2023/06/25 05:01:07;;;;;;;10.30;7.90;;;;;;;15.56;95.62;101052.34;105622;1251;69103;-72
2023/06/25 05:03:39;;;;;;;13.30;8.80;;;;;;;15.60;95.41;101052.86;105610;1251;69199;-71
2023/06/25 05:06:08;;;;;;;14.20;8.90;;;;;;;15.66;94.91;101051.54;105528;1256;75035;-69
2023/06/25 05:08:37;;;;;;;12.80;8.60;;;;;;;15.74;94.47;101052.55;105469;1256;82932;-70
2023/06/25 05:11:05;;;;;;;12.10;7.50;;;;;;;15.82;94.19;101052.70;105657;1257;73707;-70
2023/06/25 05:13:35;;;;;;;12.20;8.50;;;;;;;15.92;94.43;101052.45;105484;1255;69186;-70
2023/06/25 05:16:04;;;;;;;12.70;8.50;;;;;;;15.99;93.86;101048.38;105738;1253;69210;-68
2023/06/25 05:18:33;;;;;;;11.80;8.60;;;;;;;16.07;93.59;101049.41;105719;1253;74792;-68
2023/06/25 05:21:01;;;;;;;9.10;7.90;;;;;;;16.14;93.12;101047.43;105622;1254;83445;-71
2023/06/25 05:23:38;;;;;;;12.20;8.80;;;;;;;16.22;93.00;101051.45;105692;1256;73773;-71
2023/06/25 05:26:07;;;;;;;12.20;9.10;;;;;;;16.33;93.04;101056.20;105519;1257;69086;-69
2023/06/25 05:28:35;;;;;;;10.40;8.00;;;;;;;16.44;93.08;101053.55;105580;1254;69192;-70
2023/06/25 05:31:04;;;;;;;11.30;9.00;;;;;;;16.56;92.99;101054.16;105773;1253;75024;-70
2023/06/25 05:33:32;;;;;;;10.00;7.90;;;;;;;16.69;93.01;101051.16;105588;1256;83346;-70
2023/06/25 05:36:01;;;;;;;12.40;8.20;;;;;;;16.83;92.79;101049.59;105452;1257;72028;-70
2023/06/25 05:38:30;;;;;;;9.70;8.10;;;;;;;16.98;92.70;101045.98;105517;1254;69663;-68
2023/06/25 05:40:58;;;;;;;9.70;7.90;;;;;;;17.14;92.80;101043.71;105692;1256;69121;-69
2023/06/25 05:43:27;;;;;;;9.90;7.70;;;;;;;17.30;92.44;101046.02;105482;1257;74603;-69
2023/06/25 05:45:55;;;;;;;9.80;8.30;;;;;;;17.44;91.89;101044.20;105477;1256;83505;-69
2023/06/25 05:48:25;;;;;;;9.10;7.40;;;;;;;17.59;91.50;101047.21;105454;1254;73798;-69
2023/06/25 05:50:54;;;;;;;9.80;7.90;;;;;;;17.75;91.06;101051.84;105637;1256;69373;-70
2023/06/25 05:53:23;;;;;;;9.50;7.70;;;;;;;17.88;90.53;101051.61;105610;1254;69185;-69
2023/06/25 05:55:52;;;;;;;9.00;7.10;;;;;;;17.99;89.95;101054.40;105767;1255;75394;-69
2023/06/25 05:58:20;;;;;;;14.60;7.50;;;;;;;18.10;89.45;101055.14;105795;1253;83459;-69
2023/06/25 06:00:49;;;;;;;10.00;7.50;;;;;;;18.20;88.67;101057.55;105527;1255;73495;-69
2023/06/25 06:03:17;;;;;;;8.10;6.60;;;;;;;18.32;88.01;101056.35;105675;1256;69205;-69
2023/06/25 06:05:46;;;;;;;8.40;7.10;;;;;;;18.44;87.37;101052.98;105824;1252;69141;-69
2023/06/25 06:08:14;;;;;;;7.50;6.70;;;;;;;18.57;87.04;101052.38;105386;1253;343630;-69
2023/06/25 06:10:43;;;;;;;6.80;6.10;;;;;;;18.71;86.28;101053.48;105656;1254;82600;-70
2023/06/25 06:13:11;;;;;;;6.90;5.80;;;;;;;18.85;85.63;101054.23;105509;1253;73985;-69
2023/06/25 06:15:40;;;;;;;7.50;5.80;;;;;;;18.95;84.52;101053.48;105697;1256;69153;-71
2023/06/25 06:18:09;;;;;;;7.40;6.40;;;;;;;19.04;83.97;101057.33;105772;1256;69135;-70
2023/06/25 06:20:38;;;;;;;8.40;6.20;;;;;;;19.12;83.45;101057.56;105637;1254;74879;-76
2023/06/25 06:23:06;;;;;;;7.20;6.50;;;;;;;19.22;82.98;101058.54;105613;1253;82010;-74
2023/06/25 06:25:34;;;;;;;10.90;6.40;;;;;;;19.31;82.92;101062.70;105614;1254;73580;-74
2023/06/25 06:28:03;;;;;;;7.60;6.70;;;;;;;19.40;82.56;101065.00;105513;1255;69201;-71
2023/06/25 06:30:31;;;;;;;8.00;6.50;;;;;;;19.47;82.14;101070.75;105606;1253;69148;-73
2023/06/25 06:33:00;;;;;;;6.80;5.40;;;;;;;19.51;81.13;101072.27;105673;1253;75037;-73
2023/06/25 06:35:29;;;;;;;7.80;6.70;;;;;;;19.49;80.10;101076.27;105430;1257;83388;-71
2023/06/25 06:37:57;;;;;;;8.10;6.20;;;;;;;19.50;79.64;101073.05;105619;1253;73014;-65
2023/06/25 06:40:26;;;;;;;6.20;5.60;;;;;;;19.51;79.18;101072.46;105655;1254;69219;-65
2023/06/25 06:42:54;;;;;;;6.10;5.50;;;;;;;19.51;78.59;101073.66;105655;1256;69219;-63
2023/06/25 06:45:22;;;;;;;7.20;5.20;;;;;;;19.52;77.98;101068.27;105630;1253;75140;-67
2023/06/25 06:47:51;;;;;;;7.60;6.00;;;;;;;19.54;77.66;101071.17;105536;1256;83484;-65
2023/06/25 06:50:20;;;;;;;7.40;6.10;;;;;;;19.56;77.55;101071.73;105580;1254;74212;-65
2023/06/25 06:52:48;;;;;;;7.00;5.40;;;;;;;19.58;77.44;101070.55;105605;1253;69164;-65
2023/06/25 06:55:16;;;;;;;8.10;6.40;;;;;;;19.63;77.73;101072.02;105482;1253;69190;-65
2023/06/25 06:57:46;;;;;;;7.70;6.00;;;;;;;19.66;77.44;101069.72;105737;1256;74005;-65
2023/06/25 07:00:17;;;;;;;7.70;6.20;;;;;;;19.67;77.13;101068.60;105588;1253;84533;-65
2023/06/25 07:02:46;;;;;;;6.80;5.30;;;;;;;19.69;76.94;101068.33;105696;1253;73685;-65
2023/06/25 07:05:16;;;;;;;10.00;5.70;;;;;;;19.72;76.72;101067.45;105740;1255;69029;-65
2023/06/25 07:07:45;;;;;;;7.50;5.90;;;;;;;19.78;76.63;101067.37;105591;1253;69183;-65
2023/06/25 07:10:13;;;;;;;6.00;5.10;;;;;;;19.85;76.28;101061.42;105650;1253;75374;-65
2023/06/25 07:12:42;;;;;;;7.00;6.10;;;;;;;19.93;76.07;101064.09;105713;1256;83480;-66
2023/06/25 07:15:10;;;;;;;9.00;5.50;;;;;;;19.99;75.56;101061.18;105762;1256;73654;-66
2023/06/25 07:17:39;;;;;;;7.70;5.50;;;;;;;20.06;74.82;101058.10;105420;1258;69074;-66
2023/06/25 07:20:08;;;;;;;6.30;5.40;;;;;;;20.10;74.67;101057.80;105690;1253;69146;-66
2023/06/25 07:22:39;;;;;;;9.90;5.50;;;;;;;20.18;74.38;101057.47;105722;1256;74745;-64
2023/06/25 07:25:09;;;;;;;6.10;5.50;;;;;;;20.26;74.06;101054.44;105620;1253;83536;-67
2023/06/25 07:27:38;;;;;;;6.50;5.20;;;;;;;20.32;73.77;101051.77;105725;1256;72878;-67
2023/06/25 07:30:08;;;;;;;5.80;5.20;;;;;;;20.35;73.75;101055.29;105774;1253;69190;-66
2023/06/25 07:32:36;;;;;;;6.80;5.00;;;;;;;20.38;73.02;101050.41;105567;1252;69100;-72
2023/06/25 07:35:05;;;;;;;9.20;4.90;;;;;;;20.41;72.59;101050.05;105688;1253;75303;-56
2023/06/25 07:37:34;;;;;;;6.60;5.20;;;;;;;20.48;72.14;101048.53;105621;1256;83577;-58
2023/06/25 07:40:06;;;;;;;5.20;4.60;;;;;;;20.55;71.57;101045.79;105568;1253;73615;-54
2023/06/25 07:42:34;;;;;;;5.60;4.50;;;;;;;20.64;71.23;101049.43;105685;1255;69190;-54
2023/06/25 07:45:04;;;;;;;6.30;4.80;;;;;;;20.77;71.15;101046.02;105697;1256;69161;-55
2023/06/25 07:47:32;;;;;;;5.50;4.80;;;;;;;20.86;70.45;101044.66;105543;1256;74015;-54
2023/06/25 07:50:01;;;;;;;6.30;4.30;;;;;;;20.96;70.22;101042.20;105587;1256;83600;-56
2023/06/25 07:52:29;;;;;;;6.70;4.60;;;;;;;21.08;69.90;101045.64;105567;1254;73491;-56
2023/06/25 07:54:58;;;;;;;5.60;4.10;;;;;;;21.20;69.06;101047.27;105608;1256;69158;-55
2023/06/25 07:57:26;;;;;;;5.60;4.30;;;;;;;21.33;68.51;101047.77;105697;1253;69065;-58
2023/06/25 07:59:55;;;;;;;5.20;4.50;;;;;;;21.43;67.95;101047.63;105602;1254;73926;-58
2023/06/25 08:02:23;;;;;;;4.50;4.00;;;;;;;21.47;67.41;101045.70;105693;1255;83585;-58
2023/06/25 08:04:52;;;;;;;6.60;4.50;;;;;;;21.55;67.59;101048.88;105672;1253;73503;-57
2023/06/25 08:07:21;;;;;;;4.30;3.90;;;;;;;21.69;66.99;101047.98;105652;1252;69192;-59
2023/06/25 08:09:49;;;;;;;5.60;3.90;;;;;;;21.86;66.14;101050.30;105595;1257;69079;-58
2023/06/25 08:12:25;;;;;;;3.70;3.40;;;;;;;22.04;65.26;101047.36;105599;1254;74845;-58
2023/06/25 08:14:54;;;;;;;3.80;3.10;;;;;;;22.19;64.79;101044.81;105468;1253;82652;-56
2023/06/25 08:17:23;;;;;;;4.40;3.30;;;;;;;22.32;63.75;101047.95;105648;1253;73550;-58
2023/06/25 08:19:51;;;;;;;4.00;3.30;;;;;;;22.45;63.26;101043.93;105646;1252;69165;-58
2023/06/25 08:22:19;;;;;;;4.30;2.90;;;;;;;22.55;62.53;101044.95;105722;1255;69151;-58
2023/06/25 08:24:48;;;;;;;3.70;2.60;;;;;;;22.67;62.18;101048.30;105582;1256;73896;-57
2023/06/25 08:27:16;;;;;;;3.80;3.10;;;;;;;22.82;61.71;101044.09;105653;1255;83274;-56
2023/06/25 08:29:44;;;;;;;3.30;2.70;;;;;;;22.92;61.38;101047.60;105626;1254;73671;-55
2023/06/25 08:32:13;;;;;;;4.80;2.90;;;;;;;23.05;60.66;101046.41;105742;1253;69188;-57
2023/06/25 08:34:42;;;;;;;2.90;2.40;;;;;;;23.18;59.68;101042.58;105736;1253;69135;-57
2023/06/25 08:37:10;;;;;;;2.80;2.10;;;;;;;23.28;58.24;101039.11;105614;1254;75116;-56
2023/06/25 08:39:38;;;;;;;3.00;2.20;;;;;;;23.40;57.53;101037.75;105604;1253;83362;-57
2023/06/25 08:42:07;;;;;;;2.10;1.60;;;;;;;23.49;56.75;101032.70;105718;1256;73701;-57
2023/06/25 08:44:36;;;;;;;2.50;2.30;;;;;;;23.63;56.24;101031.21;105783;1254;69632;-57
2023/06/25 08:47:06;;;;;;;3.30;2.00;;;;;;;23.77;56.12;101031.32;105683;1253;69075;-56
2023/06/25 08:49:35;;;;;;;3.20;2.40;;;;;;;23.92;55.90;101028.91;105444;1257;73906;-58
2023/06/25 08:52:04;;;;;;;3.10;2.60;;;;;;;24.00;55.79;101029.12;105484;1257;82171;-61
2023/06/25 08:54:32;;;;;;;3.90;2.70;;;;;;;24.10;55.22;101028.07;105493;1253;74024;-60
2023/06/25 08:57:00;;;;;;;3.40;2.60;;;;;;;24.12;54.67;101029.16;105447;1253;69157;-60
2023/06/25 08:59:29;;;;;;;2.90;2.40;;;;;;;24.16;54.57;101032.59;105453;1257;69127;-61
2023/06/25 09:01:57;;;;;;;4.50;2.90;;;;;;;24.23;54.43;101031.40;105510;1253;74742;-59
2023/06/25 09:04:26;;;;;;;3.80;2.60;;;;;;;24.36;54.28;101032.98;105510;1257;83192;-61
2023/06/25 09:06:54;;;;;;;3.70;2.80;;;;;;;24.46;53.71;101033.05;105511;1253;72846;-62
2023/06/25 09:09:31;;;;;;;3.40;2.40;;;;;;;24.53;52.98;101033.05;105458;1254;69193;-60
2023/06/25 09:12:00;;;;;;;3.50;2.20;;;;;;;24.62;52.17;101030.67;105518;1258;69202;-59
2023/06/25 09:14:31;;;;;;;2.60;2.20;;;;;;;24.66;51.60;101032.59;105510;1257;74515;-59
2023/06/25 09:16:59;;;;;;;3.40;2.50;;;;;;;24.74;51.12;101029.58;105473;1253;82514;-61
2023/06/25 09:19:28;;;;;;;3.20;2.20;;;;;;;24.83;51.07;101029.86;105502;1254;73422;-61
2023/06/25 09:21:56;;;;;;;4.00;2.60;;;;;;;24.92;50.87;101026.74;105468;1253;69093;-59
2023/06/25 09:24:25;;;;;;;3.50;2.50;;;;;;;24.97;50.56;101024.05;105453;1253;69092;-65
2023/06/25 09:26:54;;;;;;;3.10;2.00;;;;;;;25.00;50.26;101023.89;105451;1253;74515;-59
2023/06/25 09:29:23;;;;;;;2.90;2.40;;;;;;;24.99;50.08;101024.21;105478;1257;83481;-59
2023/06/25 09:31:51;;;;;;;3.30;2.90;;;;;;;25.02;50.09;101019.43;105486;1253;73375;-63
2023/06/25 09:34:23;;;;;;;4.10;2.20;;;;;;;25.07;49.86;101014.52;105512;1253;69213;-62
2023/06/25 09:36:51;;;;;;;2.60;2.40;;;;;;;25.10;49.43;101016.02;105466;1257;69238;-61
2023/06/25 09:39:19;;;;;;;2.70;2.30;;;;;;;25.16;49.79;101010.22;105487;1257;75331;-62
2023/06/25 09:41:48;;;;;;;3.00;2.50;;;;;;;25.25;49.70;101012.98;105485;1257;83369;-60
2023/06/25 09:44:17;;;;;;;4.20;2.60;;;;;;;25.24;48.83;101015.23;105449;1257;73851;-61
2023/06/25 09:46:47;;;;;;;3.80;2.40;;;;;;;25.20;48.78;101010.27;105501;1254;69142;-60
2023/06/25 09:49:19;;;;;;;2.90;2.20;;;;;;;25.18;48.76;101006.10;105467;1257;69478;-60
2023/06/25 09:51:53;;;;;;;3.80;2.70;;;;;;;25.18;48.71;101008.65;105485;1253;74933;-60
2023/06/25 09:54:23;;;;;;;3.60;2.80;;;;;;;25.17;48.45;101004.95;105521;1258;83404;-62
2023/06/25 09:56:52;;;;;;;4.10;2.30;;;;;;;25.15;48.53;101003.98;105472;1253;73795;-61
2023/06/25 09:59:21;;;;;;;2.80;2.30;;;;;;;25.09;47.49;101005.66;105520;1257;69219;-62
2023/06/25 10:01:52;;;;;;;2.40;2.20;;;;;;;24.96;47.12;100998.38;105470;1253;69082;-61
2023/06/25 10:04:22;;;;;;;3.00;2.50;;;;;;;24.86;46.58;100999.56;105447;1257;74017;-59
2023/06/25 10:06:51;;;;;;;5.80;2.60;;;;;;;24.76;46.41;100998.53;105493;1253;83342;-62
2023/06/25 10:09:19;;;;;;;3.00;2.60;;;;;;;24.71;46.63;100991.22;105485;1253;71824;-59
2023/06/25 10:11:51;;;;;;;3.40;2.70;;;;;;;24.79;47.29;100990.20;105450;1254;69231;-61
2023/06/25 10:14:21;;;;;;;6.40;3.90;;;;;;;24.89;47.37;100987.91;105491;1253;70793;-60
2023/06/25 10:16:56;;;;;;;4.10;3.20;;;;;;;25.02;47.43;100984.29;105446;1253;73701;-61
2023/06/25 10:19:26;;;;;;;2.90;2.50;;;;;;;25.17;47.29;100978.84;105465;1253;82932;-64
2023/06/25 10:22:06;;;;;;;3.40;2.80;;;;;;;25.27;46.95;100977.72;105466;1253;73088;-62
2023/06/25 10:24:40;;;;;;;4.10;2.70;;;;;;;25.46;47.43;100974.93;105453;1253;69131;-62
2023/06/25 10:27:24;;;;;;;3.50;2.50;;;;;;;25.66;46.97;100971.17;105470;1253;69185;-61
2023/06/25 10:29:53;;;;;;;3.50;2.80;;;;;;;25.79;46.62;100966.42;105472;1257;74847;-62
2023/06/25 10:32:27;;;;;;;2.90;2.50;;;;;;;25.94;45.99;100966.08;105544;1257;83513;-60
2023/06/25 10:34:59;;;;;;;3.50;2.40;;;;;;;26.04;45.29;100962.08;105484;1257;74228;-60
2023/06/25 10:37:35;;;;;;;3.70;3.00;;;;;;;26.19;45.31;100958.91;105444;1253;69276;-60
2023/06/25 10:40:06;;;;;;;3.70;2.50;;;;;;;26.41;45.24;100960.41;105571;1253;69044;-65
2023/06/25 10:42:36;;;;;;;3.20;2.40;;;;;;;26.74;45.04;100962.17;105489;1253;75067;-60
2023/06/25 10:45:06;;;;;;;5.70;2.40;;;;;;;27.13;45.29;100961.16;105427;1257;83317;-61
2023/06/25 10:47:35;;;;;;;5.70;2.70;;;;;;;27.57;44.97;100953.30;105453;1257;72624;-60
2023/06/25 10:50:04;;;;;;;2.70;2.20;;;;;;;27.93;44.59;100948.29;105508;1257;69197;-62
2023/06/25 10:52:33;;;;;;;3.70;2.80;;;;;;;28.30;44.19;100946.28;105455;1253;69204;-59
2023/06/25 10:55:02;;;;;;;3.50;2.60;;;;;;;28.60;43.38;100943.89;105518;1253;75613;-62
2023/06/25 10:57:31;;;;;;;2.90;2.30;;;;;;;28.89;43.09;100940.31;105530;1257;83490;-61
2023/06/25 11:00:00;;;;;;;2.40;2.10;;;;;;;29.10;42.53;100937.88;105469;1255;73064;-59
2023/06/25 11:02:29;;;;;;;2.80;2.10;;;;;;;29.32;42.32;100935.67;105464;1255;69198;-63
2023/06/25 11:04:58;;;;;;;3.10;2.30;;;;;;;29.56;41.99;100934.52;105466;1256;69128;-61
2023/06/25 11:07:27;;;;;;;3.00;2.30;;;;;;;29.81;42.05;100931.45;105486;1255;73800;-59
2023/06/25 11:09:57;;;;;;;2.70;2.30;;;;;;;30.04;41.42;100929.97;105530;1257;84003;-60
2023/06/25 11:12:27;;;;;;;5.60;2.40;;;;;;;30.21;41.04;100928.65;105478;1253;72651;-62
2023/06/25 11:14:55;;;;;;;3.70;2.00;;;;;;;30.41;40.75;100929.08;105454;1253;69226;-61
2023/06/25 11:17:27;;;;;;;4.30;2.10;;;;;;;30.59;40.00;100930.44;105518;1256;69187;-60
2023/06/25 11:19:57;;;;;;;2.40;1.90;;;;;;;30.80;40.13;100928.78;105505;1257;74659;-60
2023/06/25 11:22:26;;;;;;;2.40;2.00;;;;;;;31.01;39.40;100928.55;105486;1257;83195;-61
2023/06/25 11:24:56;;;;;;;4.50;2.10;;;;;;;31.06;39.07;100928.36;105482;1253;74060;-63
2023/06/25 11:27:27;;;;;;;3.00;2.10;;;;;;;31.18;38.58;100918.67;105440;1253;69198;-60